• °C
  • Pobieranie danych...
wx


SEKCJA WYDRUKÓW, pokaż »

METAR EPBY 310400Z VRB02KT CAVOK 14/10 Q1006=

METAR EPGD 310400Z 26003KT CAVOK 13/10 Q1005 =

METAR EPKK 310400Z 08002KT CAVOK 17/15 Q1008 =

METAR EPKT 310400Z 14002KT CAVOK 17/14 Q1008 =

METAR EPLB 310400Z 00000KT CAVOK 16/14 Q1009 =

METAR EPLL 310400Z 09002KT CAVOK 15/13 Q1007 =

METAR EPMO 310400Z VRB01KT CAVOK 16/14 Q1007 =

METAR EPPO 310400Z 15003KT 080V170 CAVOK 17/12 Q1005 =

METAR EPRA 310400Z NIL=

METAR EPRZ 310400Z VRB02KT CAVOK 17/17 Q1009 =

METAR EPSC 310400Z 14007KT CAVOK 16/12 Q1003 =

METAR EPSY 310400Z 19004KT CAVOK 11/11 Q1007=

METAR EPWA 310400Z 14004KT CAVOK 15/13 Q1008 NOSIG=

METAR EPWR 310400Z VRB01KT CAVOK 15/14 Q1007 =

METAR EPZG 310400Z VRB02KT CAVOK 14/13 Q1005 =



Serwisy IMGW-PIB